Time;durP1;ratioP1;P1;durP2;ratioP2;P2;SDS_P1;SDS_P2;PMS_P1;PMS_P2;Temp;Humidity;BMP_temperature;BMP_pressure;BME280_temperature;BME280_humidity;BME280_pressure;Samples;Min_cycle;Max_cycle;Signal;HPM_P1;HPM_P2
2022/08/25 00:01:59;;;;;;;;;;;24.60;90.40;;;;;;5054234;28;19917;-51
2022/08/25 00:04:25;;;;;;;;;;;24.60;90.40;;;;;;5054752;28;20388;-53
2022/08/25 00:06:54;;;;;;;;;;;24.60;90.50;;;;;;5052411;28;19917;-52
2022/08/25 00:09:20;;;;;;;;;;;24.60;90.60;;;;;;5055349;28;19913;-47
2022/08/25 00:11:48;;;;;;;;;;;24.60;90.60;;;;;;5055718;28;19927;-52
2022/08/25 00:14:21;;;;;;;;;;;24.50;90.60;;;;;;5051373;28;19943;-51
2022/08/25 00:16:47;;;;;;;;;;;24.60;90.70;;;;;;5050889;28;19917;-53
2022/08/25 00:19:18;;;;;;;;;;;24.60;90.70;;;;;;5052456;28;20440;-50
2022/08/25 00:21:44;;;;;;;;;;;24.50;90.60;;;;;;5050475;28;20004;-53
2022/08/25 00:24:10;;;;;;;;;;;24.50;90.80;;;;;;5053211;28;19999;-54
2022/08/25 00:26:40;;;;;;;;;;;24.50;90.90;;;;;;5050732;28;19928;-50
2022/08/25 00:29:06;;;;;;;;;;;24.40;91.10;;;;;;5053110;28;20573;-52
2022/08/25 00:31:32;;;;;;;;;;;24.30;91.30;;;;;;5051219;28;19912;-50
2022/08/25 00:33:59;;;;;;;;;;;24.30;91.30;;;;;;5048870;28;19972;-51
2022/08/25 00:36:27;;;;;;;;;;;24.30;91.40;;;;;;5053253;28;19921;-49
2022/08/25 00:38:52;;;;;;;;;;;24.30;91.40;;;;;;5050513;28;19968;-53
2022/08/25 00:41:20;;;;;;;;;;;24.30;91.50;;;;;;5050777;28;20406;-53
2022/08/25 00:43:50;;;;;;;;;;;24.20;91.50;;;;;;5050712;28;20245;-49
2022/08/25 00:46:18;;;;;;;;;;;24.20;91.60;;;;;;5053151;28;19921;-53
2022/08/25 00:48:46;;;;;;;;;;;24.20;91.60;;;;;;5050656;28;19976;-53
2022/08/25 00:51:13;;;;;;;;;;;24.20;91.70;;;;;;5050739;28;19917;-51
2022/08/25 00:53:39;;;;;;;;;;;24.10;91.80;;;;;;5050793;28;19927;-53
2022/08/25 00:56:05;;;;;;;;;;;24.10;91.90;;;;;;5048839;28;19917;-53
2022/08/25 00:58:31;;;;;;;;;;;24.00;91.90;;;;;;5047477;28;19971;-51
2022/08/25 01:00:57;;;;;;;;;;;23.80;92.20;;;;;;5049706;28;20000;-53
2022/08/25 01:03:23;;;;;;;;;;;23.70;92.40;;;;;;5050175;28;19913;-50
2022/08/25 01:05:50;;;;;;;;;;;23.60;92.60;;;;;;5049673;28;19944;-51
2022/08/25 01:08:19;;;;;;;;;;;23.70;92.70;;;;;;5048817;28;20015;-49
2022/08/25 01:10:45;;;;;;;;;;;23.60;92.80;;;;;;5051715;28;19967;-50
2022/08/25 01:13:18;;;;;;;;;;;23.50;93.00;;;;;;5052276;28;19963;-53
2022/08/25 01:15:48;;;;;;;;;;;23.40;93.30;;;;;;5052451;28;19912;-52
2022/08/25 01:18:13;;;;;;;;;;;23.40;93.50;;;;;;5050777;28;19916;-49
2022/08/25 01:20:40;;;;;;;;;;;23.40;93.60;;;;;;5052001;28;20388;-51
2022/08/25 01:23:06;;;;;;;;;;;23.40;93.70;;;;;;5051098;28;20446;-50
2022/08/25 01:25:50;;;;;;;;;;;23.40;93.80;;;;;;5052606;28;20377;-52
2022/08/25 01:28:16;;;;;;;;;;;23.40;94.00;;;;;;5053343;28;20007;-55
2022/08/25 01:30:42;;;;;;;;;;;23.30;94.10;;;;;;5052876;28;19948;-53
2022/08/25 01:33:08;;;;;;;;;;;23.30;94.40;;;;;;5052549;28;20418;-55
2022/08/25 01:35:34;;;;;;;;;;;23.30;94.50;;;;;;5047723;28;19928;-49
2022/08/25 01:38:01;;;;;;;;;;;23.30;94.70;;;;;;5049274;28;19924;-49
2022/08/25 01:40:27;;;;;;;;;;;23.30;94.70;;;;;;5048400;28;19917;-49
2022/08/25 01:42:59;;;;;;;;;;;23.30;94.70;;;;;;5049323;28;19920;-49
2022/08/25 01:45:24;;;;;;;;;;;23.30;94.80;;;;;;5051953;28;19932;-51
2022/08/25 01:47:50;;;;;;;;;;;23.30;95.10;;;;;;5050527;28;19929;-52
2022/08/25 01:50:15;;;;;;;;;;;23.20;95.00;;;;;;5047864;28;19913;-52
2022/08/25 01:52:57;;;;;;;;;;;23.20;95.30;;;;;;5048960;28;20288;-49
2022/08/25 01:55:23;;;;;;;;;;;23.20;95.30;;;;;;5048295;28;19979;-51
2022/08/25 01:57:48;;;;;;;;;;;23.20;95.40;;;;;;5048729;28;19952;-49
2022/08/25 02:00:14;;;;;;;;;;;23.20;95.50;;;;;;5051476;28;19924;-51
2022/08/25 02:02:41;;;;;;;;;;;23.20;95.60;;;;;;5050375;28;19913;-49
2022/08/25 02:05:07;;;;;;;;;;;23.10;95.80;;;;;;5051349;28;19982;-52
2022/08/25 02:07:33;;;;;;;;;;;23.10;96.00;;;;;;5049364;28;20011;-55
2022/08/25 02:09:59;;;;;;;;;;;23.10;96.10;;;;;;5051762;28;19955;-54
2022/08/25 02:12:25;;;;;;;;;;;23.00;96.20;;;;;;5049599;28;19947;-53
2022/08/25 02:14:50;;;;;;;;;;;23.10;96.30;;;;;;5049267;28;20000;-55
2022/08/25 02:17:16;;;;;;;;;;;23.10;96.30;;;;;;5052795;28;19978;-53
2022/08/25 02:19:41;;;;;;;;;;;23.00;96.60;;;;;;5050867;28;19922;-52
2022/08/25 02:22:07;;;;;;;;;;;23.00;96.80;;;;;;5051871;28;19921;-51
2022/08/25 02:24:33;;;;;;;;;;;23.00;96.80;;;;;;5048521;28;19920;-50
2022/08/25 02:26:59;;;;;;;;;;;23.00;96.80;;;;;;5051093;28;19952;-51
2022/08/25 02:29:25;;;;;;;;;;;23.00;96.90;;;;;;5051632;28;19951;-48
2022/08/25 02:31:50;;;;;;;;;;;23.00;96.90;;;;;;5047905;28;19942;-50
2022/08/25 02:34:16;;;;;;;;;;;23.00;97.10;;;;;;5049900;28;19925;-50
2022/08/25 02:36:42;;;;;;;;;;;22.90;97.20;;;;;;5050662;28;19919;-50
2022/08/25 02:39:09;;;;;;;;;;;22.90;97.30;;;;;;5049721;28;20059;-53
2022/08/25 02:41:34;;;;;;;;;;;22.90;97.80;;;;;;5049865;28;20384;-48
2022/08/25 02:44:01;;;;;;;;;;;22.90;97.60;;;;;;5049226;28;19920;-52
2022/08/25 02:46:27;;;;;;;;;;;22.90;97.70;;;;;;5050551;28;19960;-54
2022/08/25 02:48:52;;;;;;;;;;;22.90;97.70;;;;;;5048641;28;19944;-53
2022/08/25 02:51:19;;;;;;;;;;;22.80;97.80;;;;;;5047604;28;19932;-53
2022/08/25 02:53:46;;;;;;;;;;;22.80;98.00;;;;;;5049344;28;19917;-55
2022/08/25 02:56:12;;;;;;;;;;;22.80;98.10;;;;;;5046128;28;19951;-49
2022/08/25 02:58:38;;;;;;;;;;;22.70;98.30;;;;;;5047383;28;19946;-51
2022/08/25 03:01:06;;;;;;;;;;;22.70;98.40;;;;;;5050500;28;20470;-52
2022/08/25 03:03:32;;;;;;;;;;;22.70;98.60;;;;;;5049588;28;19976;-49
2022/08/25 03:05:58;;;;;;;;;;;22.70;98.80;;;;;;5051016;28;19999;-55
2022/08/25 03:08:24;;;;;;;;;;;22.60;98.90;;;;;;5052929;28;20438;-54
2022/08/25 03:10:49;;;;;;;;;;;22.60;99.00;;;;;;5053258;28;19920;-52
2022/08/25 03:13:15;;;;;;;;;;;22.60;99.10;;;;;;5053210;28;19913;-52
2022/08/25 03:15:41;;;;;;;;;;;22.60;99.20;;;;;;5054270;28;20315;-49
2022/08/25 03:18:07;;;;;;;;;;;22.60;99.20;;;;;;5055086;28;20000;-51
2022/08/25 03:20:34;;;;;;;;;;;22.60;99.20;;;;;;5054171;28;19936;-53
2022/08/25 03:23:01;;;;;;;;;;;22.60;99.20;;;;;;5054571;28;19959;-53
2022/08/25 03:28:10;;;;;;;;;;;22.60;99.50;;;;;;5052696;28;19921;-54
2022/08/25 03:30:36;;;;;;;;;;;22.60;99.70;;;;;;5051358;28;19917;-53
2022/08/25 03:33:02;;;;;;;;;;;22.50;99.70;;;;;;5051404;28;19917;-51
2022/08/25 03:35:27;;;;;;;;;;;22.50;99.80;;;;;;5052814;28;19920;-53
2022/08/25 03:37:56;;;;;;;;;;;22.60;99.80;;;;;;5052752;28;19917;-50
2022/08/25 03:40:22;;;;;;;;;;;22.50;99.80;;;;;;5051853;28;20287;-49
2022/08/25 03:42:47;;;;;;;;;;;22.50;99.90;;;;;;5054015;28;19967;-51
2022/08/25 03:45:15;;;;;;;;;;;22.50;99.90;;;;;;5053180;28;19966;-51
2022/08/25 03:47:41;;;;;;;;;;;22.40;99.90;;;;;;5054043;28;20008;-56
2022/08/25 03:50:08;;;;;;;;;;;22.40;99.90;;;;;;5052714;28;19948;-50
2022/08/25 03:52:34;;;;;;;;;;;22.50;99.90;;;;;;5053045;28;19929;-49
2022/08/25 03:54:59;;;;;;;;;;;22.40;99.90;;;;;;5054231;28;19973;-49
2022/08/25 03:57:25;;;;;;;;;;;22.50;99.90;;;;;;5051338;28;19913;-50
2022/08/25 03:59:51;;;;;;;;;;;22.40;99.90;;;;;;5050039;28;20391;-55
2022/08/25 04:02:17;;;;;;;;;;;22.40;99.90;;;;;;5048521;28;19928;-53
2022/08/25 04:04:42;;;;;;;;;;;22.30;99.90;;;;;;5052261;28;19917;-52
2022/08/25 04:07:08;;;;;;;;;;;22.30;99.90;;;;;;5053095;28;19916;-56
2022/08/25 04:09:33;;;;;;;;;;;22.30;99.90;;;;;;5053295;28;19929;-51
2022/08/25 04:11:59;;;;;;;;;;;22.20;99.90;;;;;;5052716;28;19924;-52
2022/08/25 04:14:24;;;;;;;;;;;22.20;99.90;;;;;;5053681;28;19917;-50
2022/08/25 04:16:51;;;;;;;;;;;22.20;99.90;;;;;;5052027;28;19927;-52
2022/08/25 04:19:17;;;;;;;;;;;22.20;99.90;;;;;;5053327;28;19917;-49
2022/08/25 04:21:42;;;;;;;;;;;22.20;99.90;;;;;;5052924;28;19913;-50
2022/08/25 04:24:09;;;;;;;;;;;22.20;99.90;;;;;;5054522;28;19908;-49
2022/08/25 04:26:36;;;;;;;;;;;22.20;99.90;;;;;;5054412;28;19917;-49
2022/08/25 04:29:03;;;;;;;;;;;22.20;99.90;;;;;;5053098;28;19957;-50
2022/08/25 04:31:29;;;;;;;;;;;22.20;99.90;;;;;;5052468;28;19921;-52
2022/08/25 04:33:55;;;;;;;;;;;22.20;99.90;;;;;;5053543;28;20419;-52
2022/08/25 04:36:21;;;;;;;;;;;22.20;99.90;;;;;;5053913;28;19912;-52
2022/08/25 04:38:48;;;;;;;;;;;22.20;99.90;;;;;;5052162;28;20544;-52
2022/08/25 04:41:15;;;;;;;;;;;22.20;99.90;;;;;;5053008;28;19999;-52
2022/08/25 04:43:41;;;;;;;;;;;22.30;99.90;;;;;;5051302;28;20049;-52
2022/08/25 04:46:09;;;;;;;;;;;22.40;99.90;;;;;;5033832;28;19913;-48
2022/08/25 04:48:35;;;;;;;;;;;22.40;99.90;;;;;;5036191;28;19913;-51
2022/08/25 04:51:05;;;;;;;;;;;22.40;99.90;;;;;;5053561;28;19915;-49
2022/08/25 04:53:31;;;;;;;;;;;22.40;99.90;;;;;;5054055;28;19917;-47
2022/08/25 04:55:56;;;;;;;;;;;22.40;99.90;;;;;;5054336;28;19966;-53
2022/08/25 04:58:22;;;;;;;;;;;22.30;99.90;;;;;;5052874;28;20400;-52
2022/08/25 05:00:48;;;;;;;;;;;22.30;99.90;;;;;;5052737;28;20307;-53
2022/08/25 05:03:13;;;;;;;;;;;22.30;99.90;;;;;;5054268;28;19956;-50
2022/08/25 05:05:39;;;;;;;;;;;22.20;99.90;;;;;;5048849;28;19917;-48
2022/08/25 05:08:05;;;;;;;;;;;22.20;99.90;;;;;;5048442;28;20558;-47
2022/08/25 05:10:31;;;;;;;;;;;22.20;99.90;;;;;;5053631;28;19913;-51
2022/08/25 05:12:57;;;;;;;;;;;22.20;99.90;;;;;;5052721;28;19924;-50
2022/08/25 05:18:07;;;;;;;;;;;22.20;99.90;;;;;;5054274;28;19909;-49
2022/08/25 05:20:35;;;;;;;;;;;22.30;99.90;;;;;;5052239;28;19966;-52
2022/08/25 05:23:00;;;;;;;;;;;22.40;99.90;;;;;;5052907;28;19916;-49
2022/08/25 05:25:26;;;;;;;;;;;22.40;99.90;;;;;;5048733;28;19928;-52
2022/08/25 05:27:51;;;;;;;;;;;22.40;99.90;;;;;;5049519;28;19923;-51
2022/08/25 05:30:17;;;;;;;;;;;22.40;99.90;;;;;;5049304;28;20011;-51
2022/08/25 05:32:42;;;;;;;;;;;22.40;99.90;;;;;;5050742;28;19916;-52
2022/08/25 05:35:08;;;;;;;;;;;22.40;99.90;;;;;;5051229;28;19917;-51
2022/08/25 05:37:34;;;;;;;;;;;22.50;99.90;;;;;;5051895;28;19925;-51
2022/08/25 05:39:59;;;;;;;;;;;22.50;99.90;;;;;;5049899;28;19921;-49
2022/08/25 05:42:27;;;;;;;;;;;22.50;99.90;;;;;;5047762;28;20323;-51
2022/08/25 05:44:52;;;;;;;;;;;22.40;99.90;;;;;;5047253;28;19974;-49
2022/08/25 05:47:18;;;;;;;;;;;22.40;99.90;;;;;;5050475;28;19921;-50
2022/08/25 05:49:43;;;;;;;;;;;22.40;99.90;;;;;;5052317;28;19917;-51
2022/08/25 05:52:09;;;;;;;;;;;22.50;99.90;;;;;;5048877;28;19917;-53
2022/08/25 05:54:35;;;;;;;;;;;22.50;99.90;;;;;;5051222;28;19923;-47
2022/08/25 05:57:00;;;;;;;;;;;22.50;99.90;;;;;;5049341;28;19921;-49
2022/08/25 05:59:26;;;;;;;;;;;22.60;99.90;;;;;;5049017;28;19928;-51
2022/08/25 06:04:36;;;;;;;;;;;22.70;99.90;;;;;;5050563;28;19920;-52
2022/08/25 06:07:01;;;;;;;;;;;22.80;99.90;;;;;;5048156;28;19932;-50
2022/08/25 06:09:27;;;;;;;;;;;22.80;99.90;;;;;;5053137;28;19917;-49
2022/08/25 06:11:53;;;;;;;;;;;22.80;99.90;;;;;;5047629;28;20427;-52
2022/08/25 06:14:18;;;;;;;;;;;22.70;99.90;;;;;;5051287;28;20273;-48
2022/08/25 06:16:44;;;;;;;;;;;22.80;99.90;;;;;;5048711;28;19968;-53
2022/08/25 06:19:10;;;;;;;;;;;22.70;99.90;;;;;;5051979;28;19972;-51
2022/08/25 06:21:38;;;;;;;;;;;22.80;99.90;;;;;;5048968;28;19913;-52
2022/08/25 06:24:04;;;;;;;;;;;22.90;99.90;;;;;;5051894;28;19955;-48
2022/08/25 06:26:29;;;;;;;;;;;23.00;99.90;;;;;;5050053;28;20364;-49
2022/08/25 06:28:55;;;;;;;;;;;23.10;99.90;;;;;;5049598;28;19917;-49
2022/08/25 06:31:21;;;;;;;;;;;23.10;99.90;;;;;;5051723;28;19913;-50
2022/08/25 06:33:47;;;;;;;;;;;23.10;99.90;;;;;;5047598;28;19913;-53
2022/08/25 06:36:13;;;;;;;;;;;23.20;99.90;;;;;;5052665;28;20432;-52
2022/08/25 06:38:38;;;;;;;;;;;23.30;99.90;;;;;;5051176;28;19968;-53
2022/08/25 06:41:05;;;;;;;;;;;23.40;99.90;;;;;;5054533;28;20162;-47
2022/08/25 06:43:32;;;;;;;;;;;23.40;99.90;;;;;;5055740;28;19947;-53
2022/08/25 06:45:57;;;;;;;;;;;23.50;99.90;;;;;;5056622;28;19924;-51
2022/08/25 06:48:23;;;;;;;;;;;23.60;99.90;;;;;;5055355;28;19917;-53
2022/08/25 06:50:49;;;;;;;;;;;23.60;99.90;;;;;;5052464;28;19913;-52
2022/08/25 06:53:14;;;;;;;;;;;23.60;99.90;;;;;;5053988;28;19920;-52
2022/08/25 06:55:40;;;;;;;;;;;23.60;99.90;;;;;;5054530;28;19940;-52
2022/08/25 06:58:06;;;;;;;;;;;23.70;99.90;;;;;;5054371;28;19967;-51
2022/08/25 07:00:32;;;;;;;;;;;23.90;99.90;;;;;;5053428;28;19942;-54
2022/08/25 07:02:59;;;;;;;;;;;23.90;99.90;;;;;;5049658;28;20327;-52
2022/08/25 07:05:25;;;;;;;;;;;24.00;99.90;;;;;;5055774;28;19917;-50
2022/08/25 07:07:51;;;;;;;;;;;24.00;99.90;;;;;;5056235;28;19932;-47
2022/08/25 07:10:16;;;;;;;;;;;24.10;99.90;;;;;;5058073;28;19923;-54
2022/08/25 07:12:42;;;;;;;;;;;24.10;99.90;;;;;;5057450;28;19968;-49
2022/08/25 07:15:07;;;;;;;;;;;24.10;99.90;;;;;;5052473;28;20145;-49
2022/08/25 07:17:33;;;;;;;;;;;24.00;99.90;;;;;;5052940;28;20296;-52
2022/08/25 07:19:59;;;;;;;;;;;24.00;99.90;;;;;;5054604;28;19947;-49
2022/08/25 07:22:24;;;;;;;;;;;24.00;99.90;;;;;;5053609;28;20296;-50
2022/08/25 07:24:50;;;;;;;;;;;24.10;99.90;;;;;;5053060;28;19913;-50
2022/08/25 07:27:15;;;;;;;;;;;24.20;99.90;;;;;;5055189;28;19981;-52
2022/08/25 07:29:41;;;;;;;;;;;24.30;99.90;;;;;;5055928;28;19917;-50
2022/08/25 07:32:07;;;;;;;;;;;24.30;99.90;;;;;;5050592;28;20377;-52
2022/08/25 07:37:17;;;;;;;;;;;24.40;99.90;;;;;;5055126;28;20288;-52
2022/08/25 07:39:43;;;;;;;;;;;24.40;99.90;;;;;;5053813;28;20100;-48
2022/08/25 07:42:08;;;;;;;;;;;24.50;99.90;;;;;;5054243;28;19923;-53
2022/08/25 07:44:34;;;;;;;;;;;24.60;99.90;;;;;;5052956;28;20187;-51
2022/08/25 07:46:59;;;;;;;;;;;24.60;99.80;;;;;;5055662;28;20404;-53
2022/08/25 07:49:26;;;;;;;;;;;24.80;99.80;;;;;;5053479;28;19939;-51
2022/08/25 07:51:52;;;;;;;;;;;24.70;99.80;;;;;;5053705;28;19958;-51
2022/08/25 07:54:19;;;;;;;;;;;24.60;99.50;;;;;;5052682;28;20419;-50
2022/08/25 07:56:44;;;;;;;;;;;24.70;99.90;;;;;;5054666;28;19923;-52
2022/08/25 07:59:10;;;;;;;;;;;24.70;99.70;;;;;;5051938;28;19921;-49
2022/08/25 08:01:36;;;;;;;;;;;24.90;99.60;;;;;;5054662;28;20396;-49
2022/08/25 08:04:01;;;;;;;;;;;25.00;99.40;;;;;;5050718;28;19927;-51
2022/08/25 08:06:27;;;;;;;;;;;24.90;99.30;;;;;;5053702;28;19958;-49
2022/08/25 08:08:53;;;;;;;;;;;24.90;99.40;;;;;;5056779;28;19913;-47
2022/08/25 08:11:18;;;;;;;;;;;24.90;99.30;;;;;;5054705;28;19917;-48
2022/08/25 08:13:44;;;;;;;;;;;25.00;99.40;;;;;;5054182;28;20007;-47
2022/08/25 08:16:10;;;;;;;;;;;25.10;99.40;;;;;;5053701;28;19917;-49
2022/08/25 08:18:36;;;;;;;;;;;25.20;99.20;;;;;;5053002;28;19916;-53
2022/08/25 08:21:01;;;;;;;;;;;25.20;98.90;;;;;;5053284;28;19932;-53
2022/08/25 08:23:28;;;;;;;;;;;25.30;98.90;;;;;;5054191;28;19913;-53
2022/08/25 08:25:54;;;;;;;;;;;25.50;98.70;;;;;;5049169;28;19917;-50
2022/08/25 08:28:20;;;;;;;;;;;25.70;98.50;;;;;;5054431;28;20281;-52
2022/08/25 08:30:45;;;;;;;;;;;25.80;98.30;;;;;;5052093;28;19924;-54
2022/08/25 08:33:11;;;;;;;;;;;25.80;98.10;;;;;;5052777;28;19924;-53
2022/08/25 08:35:37;;;;;;;;;;;25.70;98.30;;;;;;5051981;28;20007;-48
2022/08/25 08:38:03;;;;;;;;;;;25.70;98.30;;;;;;5054328;28;19917;-51
2022/08/25 08:40:30;;;;;;;;;;;25.80;98.00;;;;;;5053052;28;20008;-48
2022/08/25 08:42:56;;;;;;;;;;;25.90;98.00;;;;;;5053886;28;19924;-51
2022/08/25 08:45:33;;;;;;;;;;;25.90;98.30;;;;;;5053891;28;20404;-54
2022/08/25 08:48:17;;;;;;;;;;;25.90;97.90;;;;;;5053012;28;20296;-46
2022/08/25 08:50:53;;;;;;;;;;;26.00;97.70;;;;;;5053769;28;19913;-49
2022/08/25 08:53:37;;;;;;;;;;;26.10;97.50;;;;;;5053443;28;19932;-49
2022/08/25 08:56:12;;;;;;;;;;;26.10;97.20;;;;;;5058063;28;19967;-46
2022/08/25 08:58:43;;;;;;;;;;;26.10;97.10;;;;;;5060156;28;19959;-47
2022/08/25 09:01:11;;;;;;;;;;;26.10;97.00;;;;;;5059197;28;20298;-48
2022/08/25 09:03:41;;;;;;;;;;;26.10;97.00;;;;;;5052089;28;20353;-54
2022/08/25 09:06:12;;;;;;;;;;;26.10;96.90;;;;;;5052283;28;19988;-49
2022/08/25 09:08:42;;;;;;;;;;;26.10;96.90;;;;;;5052344;28;20058;-48
2022/08/25 09:11:17;;;;;;;;;;;26.10;96.70;;;;;;5052182;28;19924;-49
2022/08/25 09:14:04;;;;;;;;;;;26.20;96.60;;;;;;5053170;28;19917;-52
2022/08/25 09:16:57;;;;;;;;;;;26.40;96.60;;;;;;5051981;28;19913;-47
2022/08/25 09:19:34;;;;;;;;;;;26.60;96.00;;;;;;5052310;28;19923;-47
2022/08/25 09:22:18;;;;;;;;;;;26.80;95.90;;;;;;5052323;28;19919;-48
2022/08/25 09:25:00;;;;;;;;;;;26.90;95.60;;;;;;5053014;28;19963;-54
2022/08/25 09:27:26;;;;;;;;;;;27.00;95.60;;;;;;5053210;28;19939;-48
2022/08/25 09:29:51;;;;;;;;;;;27.10;95.50;;;;;;5053037;28;19921;-53
2022/08/25 09:32:17;;;;;;;;;;;27.20;95.40;;;;;;5053233;28;19913;-54
2022/08/25 09:34:44;;;;;;;;;;;27.10;95.00;;;;;;5052279;28;19932;-50
2022/08/25 09:37:09;;;;;;;;;;;26.90;95.20;;;;;;5052694;28;20196;-52
2022/08/25 09:39:35;;;;;;;;;;;26.80;95.50;;;;;;5052785;28;19925;-53
2022/08/25 09:48:38;;;;;;;;;;;27.30;95.00;;;;;;5052345;28;19920;-51
2022/08/25 09:51:16;;;;;;;;;;;27.30;94.70;;;;;;5052233;28;19920;-47
2022/08/25 09:53:47;;;;;;;;;;;27.30;94.40;;;;;;5052886;28;19920;-54
2022/08/25 09:56:13;;;;;;;;;;;27.30;94.60;;;;;;5052868;28;19995;-52
2022/08/25 09:58:38;;;;;;;;;;;27.40;94.40;;;;;;5052017;28;19937;-47
2022/08/25 10:01:04;;;;;;;;;;;27.50;94.40;;;;;;5052211;28;19957;-47
2022/08/25 10:03:30;;;;;;;;;;;27.40;94.40;;;;;;5053295;28;19912;-52
2022/08/25 10:05:58;;;;;;;;;;;27.50;94.40;;;;;;5052054;28;19912;-50
2022/08/25 10:08:23;;;;;;;;;;;27.50;94.20;;;;;;5052397;28;19913;-49
2022/08/25 10:10:52;;;;;;;;;;;27.60;94.10;;;;;;5052663;28;19912;-52
2022/08/25 10:13:19;;;;;;;;;;;27.40;94.30;;;;;;5049854;28;19939;-48
2022/08/25 10:15:45;;;;;;;;;;;27.40;94.30;;;;;;5053026;28;19960;-51
2022/08/25 10:18:14;;;;;;;;;;;27.40;94.20;;;;;;5052801;28;19912;-48
2022/08/25 10:20:40;;;;;;;;;;;27.40;94.10;;;;;;5050522;28;19966;-48
2022/08/25 10:23:09;;;;;;;;;;;27.50;93.90;;;;;;5051848;28;19917;-51
2022/08/25 10:25:35;;;;;;;;;;;27.60;93.90;;;;;;5052290;28;19919;-48
2022/08/25 10:28:19;;;;;;;;;;;27.60;93.70;;;;;;5052582;28;19912;-52
2022/08/25 10:30:57;;;;;;;;;;;27.50;93.70;;;;;;5051830;28;19913;-47
2022/08/25 10:33:50;;;;;;;;;;;27.50;93.60;;;;;;5048869;28;19974;-52
2022/08/25 10:36:28;;;;;;;;;;;27.50;93.60;;;;;;5040555;28;20280;-46
2022/08/25 10:38:56;;;;;;;;;;;27.50;93.60;;;;;;5050323;28;19917;-51
2022/08/25 10:41:40;;;;;;;;;;;27.60;93.60;;;;;;5052181;28;19931;-50
2022/08/25 10:44:06;;;;;;;;;;;27.80;93.40;;;;;;5052588;28;20288;-54
2022/08/25 10:46:47;;;;;;;;;;;28.00;93.10;;;;;;5051579;28;19988;-54
2022/08/25 10:49:17;;;;;;;;;;;28.40;92.70;;;;;;5051717;28;20380;-50
2022/08/25 10:52:01;;;;;;;;;;;28.50;92.50;;;;;;5051524;28;19913;-54
2022/08/25 10:54:33;;;;;;;;;;;28.80;92.10;;;;;;5049807;28;20009;-49
2022/08/25 10:57:17;;;;;;;;;;;28.80;91.70;;;;;;5051362;28;20410;-52
2022/08/25 10:59:49;;;;;;;;;;;29.00;91.50;;;;;;5051708;28;19932;-51
2022/08/25 11:02:33;;;;;;;;;;;29.00;91.00;;;;;;5051376;28;19917;-50
2022/08/25 11:05:16;;;;;;;;;;;29.20;90.90;;;;;;5052842;28;19966;-48
2022/08/25 11:07:44;;;;;;;;;;;29.10;90.30;;;;;;5051586;28;19936;-52
2022/08/25 11:10:33;;;;;;;;;;;29.10;90.30;;;;;;5051235;28;19920;-48
2022/08/25 11:13:00;;;;;;;;;;;29.30;90.30;;;;;;5045608;28;19920;-51
2022/08/25 11:15:35;;;;;;;;;;;29.50;90.00;;;;;;5050126;28;19947;-52
2022/08/25 11:18:04;;;;;;;;;;;29.50;90.10;;;;;;5051285;28;19920;-52
2022/08/25 11:20:36;;;;;;;;;;;29.50;90.30;;;;;;5050524;28;19923;-51
2022/08/25 11:23:14;;;;;;;;;;;29.40;90.50;;;;;;5051354;28;19928;-53
2022/08/25 11:25:41;;;;;;;;;;;29.50;90.00;;;;;;5052327;28;20429;-49
2022/08/25 11:28:11;;;;;;;;;;;29.40;89.60;;;;;;5054687;28;20015;-49
2022/08/25 11:30:37;;;;;;;;;;;29.30;90.20;;;;;;5055956;28;19913;-47
2022/08/25 11:33:03;;;;;;;;;;;29.40;90.20;;;;;;5055547;28;19920;-49
2022/08/25 11:35:36;;;;;;;;;;;29.40;90.20;;;;;;5056603;28;19913;-50
2022/08/25 11:38:20;;;;;;;;;;;29.40;90.20;;;;;;5055087;28;19921;-48
2022/08/25 11:41:04;;;;;;;;;;;29.10;90.40;;;;;;5055705;28;19920;-51
2022/08/25 11:43:45;;;;;;;;;;;29.10;90.50;;;;;;5054628;28;19952;-52
2022/08/25 11:46:23;;;;;;;;;;;29.20;90.50;;;;;;5055282;28;20007;-52
2022/08/25 11:49:07;;;;;;;;;;;29.10;90.50;;;;;;5055563;28;19913;-50
2022/08/25 11:51:39;;;;;;;;;;;28.90;90.40;;;;;;5057258;28;20343;-50
2022/08/25 11:54:17;;;;;;;;;;;28.70;90.60;;;;;;5061090;28;19920;-47
2022/08/25 11:56:49;;;;;;;;;;;28.70;90.70;;;;;;5062254;28;19947;-47
2022/08/25 11:59:35;;;;;;;;;;;29.10;90.50;;;;;;5060310;28;19924;-48
2022/08/25 12:02:00;;;;;;;;;;;29.20;90.20;;;;;;5055948;28;19913;-49
2022/08/25 12:04:32;;;;;;;;;;;29.30;90.10;;;;;;5055048;28;19917;-52
2022/08/25 12:07:04;;;;;;;;;;;29.10;90.00;;;;;;5053498;28;19966;-53
2022/08/25 12:09:29;;;;;;;;;;;28.80;90.40;;;;;;5053962;28;19917;-56
2022/08/25 12:11:57;;;;;;;;;;;28.80;90.30;;;;;;5054963;28;19913;-49
2022/08/25 12:14:25;;;;;;;;;;;29.20;90.20;;;;;;5053481;28;19917;-54
2022/08/25 12:16:52;;;;;;;;;;;29.40;89.50;;;;;;5054901;28;19963;-52
2022/08/25 12:19:23;;;;;;;;;;;29.70;88.90;;;;;;5052870;28;19985;-49
2022/08/25 12:21:50;;;;;;;;;;;30.00;88.00;;;;;;5053304;28;19912;-52
2022/08/25 12:24:18;;;;;;;;;;;30.10;87.40;;;;;;5054581;28;20269;-48
2022/08/25 12:26:43;;;;;;;;;;;30.20;87.30;;;;;;5052592;28;19996;-49
2022/08/25 12:29:15;;;;;;;;;;;30.10;87.00;;;;;;5054523;28;19955;-49
2022/08/25 12:31:55;;;;;;;;;;;30.00;87.50;;;;;;5052977;28;20348;-51
2022/08/25 12:34:39;;;;;;;;;;;29.70;88.10;;;;;;5054848;28;20291;-53
2022/08/25 12:37:15;;;;;;;;;;;29.70;88.40;;;;;;5053406;28;20326;-50
2022/08/25 12:39:44;;;;;;;;;;;29.80;87.50;;;;;;5053240;28;19916;-55
2022/08/25 12:42:21;;;;;;;;;;;29.80;87.60;;;;;;5053585;28;19967;-49
2022/08/25 12:45:06;;;;;;;;;;;30.10;87.40;;;;;;5054075;28;19917;-53
2022/08/25 12:47:32;;;;;;;;;;;30.20;86.60;;;;;;5050351;28;20489;-50
2022/08/25 12:50:17;;;;;;;;;;;30.10;86.30;;;;;;5052578;28;19966;-47
2022/08/25 12:52:42;;;;;;;;;;;30.00;86.60;;;;;;5051209;28;19940;-47
2022/08/25 12:55:10;;;;;;;;;;;30.00;86.00;;;;;;5050699;28;19966;-47
2022/08/25 12:57:39;;;;;;;;;;;30.30;85.40;;;;;;5055483;28;20411;-51
2022/08/25 13:00:15;;;;;;;;;;;30.70;85.30;;;;;;5054560;28;19917;-48
2022/08/25 13:02:40;;;;;;;;;;;30.90;84.10;;;;;;5055138;28;19920;-51
2022/08/25 13:05:15;;;;;;;;;;;31.00;83.60;;;;;;5054892;28;20139;-48
2022/08/25 13:07:57;;;;;;;;;;;30.90;83.90;;;;;;5053646;28;19912;-50
2022/08/25 13:10:40;;;;;;;;;;;30.60;84.80;;;;;;5051244;28;19959;-48
2022/08/25 13:13:18;;;;;;;;;;;30.50;85.20;;;;;;5053185;28;20468;-51
2022/08/25 13:15:45;;;;;;;;;;;30.40;85.60;;;;;;5050184;28;19912;-49
2022/08/25 13:18:12;;;;;;;;;;;30.70;85.40;;;;;;5050993;28;20335;-46
2022/08/25 13:20:37;;;;;;;;;;;31.00;84.30;;;;;;5052392;28;20307;-51
2022/08/25 13:23:03;;;;;;;;;;;31.10;83.00;;;;;;5050799;28;20000;-47
2022/08/25 13:25:29;;;;;;;;;;;31.20;83.10;;;;;;5052339;28;20377;-47
2022/08/25 13:27:57;;;;;;;;;;;31.40;82.70;;;;;;5053027;28;19917;-50
2022/08/25 13:30:26;;;;;;;;;;;31.30;82.20;;;;;;5053226;28;20546;-52
2022/08/25 13:32:52;;;;;;;;;;;31.50;82.10;;;;;;5051235;28;19952;-51
2022/08/25 13:35:22;;;;;;;;;;;31.40;82.50;;;;;;5055864;28;19924;-54
2022/08/25 13:37:47;;;;;;;;;;;31.20;83.20;;;;;;5056627;28;19920;-51
2022/08/25 13:40:15;;;;;;;;;;;31.00;82.80;;;;;;5051555;28;19917;-49
2022/08/25 13:42:41;;;;;;;;;;;31.20;83.90;;;;;;5053993;28;19919;-50
2022/08/25 13:45:08;;;;;;;;;;;31.60;82.20;;;;;;5050961;28;19920;-52
2022/08/25 13:47:35;;;;;;;;;;;31.80;81.10;;;;;;5053694;28;19963;-51
2022/08/25 13:50:13;;;;;;;;;;;32.10;81.00;;;;;;5053019;28;19963;-52
2022/08/25 13:52:39;;;;;;;;;;;32.40;80.10;;;;;;5042383;28;19931;-52
2022/08/25 13:55:04;;;;;;;;;;;32.60;78.00;;;;;;5052848;28;20309;-51
2022/08/25 13:57:31;;;;;;;;;;;32.80;78.40;;;;;;5053132;28;20043;-50
2022/08/25 14:00:00;;;;;;;;;;;32.90;77.30;;;;;;5044314;28;20015;-51
2022/08/25 14:02:44;;;;;;;;;;;32.80;76.50;;;;;;5053409;28;20012;-50
2022/08/25 14:05:11;;;;;;;;;;;32.70;76.50;;;;;;5047524;28;19956;-48
2022/08/25 14:07:37;;;;;;;;;;;32.40;77.50;;;;;;5047097;28;19917;-48
2022/08/25 14:10:26;;;;;;;;;;;32.40;77.40;;;;;;5034107;28;20391;-52
2022/08/25 14:13:07;;;;;;;;;;;32.30;77.70;;;;;;5033384;28;19959;-48
2022/08/25 14:15:33;;;;;;;;;;;32.10;78.40;;;;;;5052843;28;19913;-52
2022/08/25 14:18:06;;;;;;;;;;;32.20;78.00;;;;;;5052309;28;20007;-50
2022/08/25 14:20:33;;;;;;;;;;;32.10;77.70;;;;;;5050822;28;20015;-50
2022/08/25 14:23:03;;;;;;;;;;;31.50;78.70;;;;;;5064796;28;20049;-51
2022/08/25 14:25:31;;;;;;;;;;;31.30;79.00;;;;;;5062647;28;20043;-49
2022/08/25 14:28:00;;;;;;;;;;;31.30;78.50;;;;;;5060721;28;19962;-49
2022/08/25 14:30:26;;;;;;;;;;;31.20;78.80;;;;;;5062390;28;19938;-49
2022/08/25 14:32:52;;;;;;;;;;;31.30;78.50;;;;;;5060732;28;19917;-46
2022/08/25 14:35:17;;;;;;;;;;;31.60;78.60;;;;;;5052610;28;20373;-51
2022/08/25 14:37:44;;;;;;;;;;;32.20;78.40;;;;;;5048642;28;19913;-53
2022/08/25 14:40:12;;;;;;;;;;;32.70;76.50;;;;;;5044188;28;20207;-52
2022/08/25 14:42:38;;;;;;;;;;;32.70;76.60;;;;;;5045196;28;20023;-47